sensor_id;sensor_type;location;lat;lon;timestamp;P1;durP1;ratioP1;P2;durP2;ratioP2
1294;SDS011;640;48.310;11.728;2022-07-15T00:00:21;5.05;;;3.30;;
1294;SDS011;640;48.310;11.728;2022-07-15T00:02:50;5.68;;;3.65;;
1294;SDS011;640;48.310;11.728;2022-07-15T00:05:20;6.28;;;3.67;;
1294;SDS011;640;48.310;11.728;2022-07-15T00:07:58;7.43;;;3.85;;
1294;SDS011;640;48.310;11.728;2022-07-15T00:10:27;5.75;;;3.70;;
1294;SDS011;640;48.310;11.728;2022-07-15T00:12:57;6.65;;;3.42;;
1294;SDS011;640;48.310;11.728;2022-07-15T00:17:57;5.63;;;3.42;;
1294;SDS011;640;48.310;11.728;2022-07-15T00:20:30;5.63;;;3.50;;
1294;SDS011;640;48.310;11.728;2022-07-15T00:23:10;5.20;;;3.50;;
1294;SDS011;640;48.310;11.728;2022-07-15T00:25:42;5.30;;;3.45;;
1294;SDS011;640;48.310;11.728;2022-07-15T00:28:10;6.38;;;3.72;;
1294;SDS011;640;48.310;11.728;2022-07-15T00:30:47;7.72;;;3.97;;
1294;SDS011;640;48.310;11.728;2022-07-15T00:33:21;6.03;;;3.80;;
1294;SDS011;640;48.310;11.728;2022-07-15T00:35:51;7.72;;;3.55;;
1294;SDS011;640;48.310;11.728;2022-07-15T00:38:20;6.90;;;3.80;;
1294;SDS011;640;48.310;11.728;2022-07-15T00:40:49;10.30;;;3.50;;
1294;SDS011;640;48.310;11.728;2022-07-15T00:43:18;7.22;;;3.70;;
1294;SDS011;640;48.310;11.728;2022-07-15T00:45:46;6.53;;;3.33;;
1294;SDS011;640;48.310;11.728;2022-07-15T00:48:15;6.75;;;3.47;;
1294;SDS011;640;48.310;11.728;2022-07-15T00:50:47;6.78;;;3.33;;
1294;SDS011;640;48.310;11.728;2022-07-15T00:53:17;5.50;;;3.55;;
1294;SDS011;640;48.310;11.728;2022-07-15T00:55:47;7.50;;;3.60;;
1294;SDS011;640;48.310;11.728;2022-07-15T00:58:16;4.65;;;3.50;;
1294;SDS011;640;48.310;11.728;2022-07-15T01:00:47;6.20;;;3.33;;
1294;SDS011;640;48.310;11.728;2022-07-15T01:03:16;4.55;;;3.22;;
1294;SDS011;640;48.310;11.728;2022-07-15T01:05:46;5.80;;;3.47;;
1294;SDS011;640;48.310;11.728;2022-07-15T01:08:17;5.65;;;3.30;;
1294;SDS011;640;48.310;11.728;2022-07-15T01:10:46;5.22;;;3.88;;
1294;SDS011;640;48.310;11.728;2022-07-15T01:13:16;8.43;;;3.85;;
1294;SDS011;640;48.310;11.728;2022-07-15T01:15:45;6.28;;;3.83;;
1294;SDS011;640;48.310;11.728;2022-07-15T01:18:14;7.25;;;3.38;;
1294;SDS011;640;48.310;11.728;2022-07-15T01:20:44;8.15;;;3.80;;
1294;SDS011;640;48.310;11.728;2022-07-15T01:23:15;6.10;;;3.75;;
1294;SDS011;640;48.310;11.728;2022-07-15T01:25:44;5.63;;;3.88;;
1294;SDS011;640;48.310;11.728;2022-07-15T01:28:12;4.97;;;3.60;;
1294;SDS011;640;48.310;11.728;2022-07-15T01:30:41;6.05;;;3.60;;
1294;SDS011;640;48.310;11.728;2022-07-15T01:33:09;6.30;;;3.70;;
1294;SDS011;640;48.310;11.728;2022-07-15T01:35:38;4.47;;;3.75;;
1294;SDS011;640;48.310;11.728;2022-07-15T01:38:08;5.10;;;3.90;;
1294;SDS011;640;48.310;11.728;2022-07-15T01:40:36;6.13;;;3.53;;
1294;SDS011;640;48.310;11.728;2022-07-15T01:43:05;9.88;;;3.70;;
1294;SDS011;640;48.310;11.728;2022-07-15T01:45:33;10.25;;;3.95;;
1294;SDS011;640;48.310;11.728;2022-07-15T01:48:02;7.00;;;3.70;;
1294;SDS011;640;48.310;11.728;2022-07-15T01:50:30;5.43;;;3.20;;
1294;SDS011;640;48.310;11.728;2022-07-15T01:52:58;8.07;;;2.85;;
1294;SDS011;640;48.310;11.728;2022-07-15T01:55:28;6.15;;;2.90;;
1294;SDS011;640;48.310;11.728;2022-07-15T01:57:56;9.10;;;3.08;;
1294;SDS011;640;48.310;11.728;2022-07-15T02:00:25;9.68;;;3.05;;
1294;SDS011;640;48.310;11.728;2022-07-15T02:02:53;4.40;;;2.50;;
1294;SDS011;640;48.310;11.728;2022-07-15T02:05:22;6.35;;;2.78;;
1294;SDS011;640;48.310;11.728;2022-07-15T02:07:51;7.35;;;2.60;;
1294;SDS011;640;48.310;11.728;2022-07-15T02:10:19;4.47;;;1.92;;
1294;SDS011;640;48.310;11.728;2022-07-15T02:12:49;6.45;;;2.53;;
1294;SDS011;640;48.310;11.728;2022-07-15T02:15:17;5.97;;;2.30;;
1294;SDS011;640;48.310;11.728;2022-07-15T02:17:46;5.85;;;2.13;;
1294;SDS011;640;48.310;11.728;2022-07-15T02:20:14;4.40;;;2.40;;
1294;SDS011;640;48.310;11.728;2022-07-15T02:22:43;5.00;;;2.03;;
1294;SDS011;640;48.310;11.728;2022-07-15T02:25:11;3.67;;;1.85;;
1294;SDS011;640;48.310;11.728;2022-07-15T02:27:40;5.97;;;2.15;;
1294;SDS011;640;48.310;11.728;2022-07-15T02:30:10;6.00;;;2.20;;
1294;SDS011;640;48.310;11.728;2022-07-15T02:35:07;5.88;;;2.35;;
1294;SDS011;640;48.310;11.728;2022-07-15T02:37:36;7.47;;;2.03;;
1294;SDS011;640;48.310;11.728;2022-07-15T02:40:05;4.65;;;2.08;;
1294;SDS011;640;48.310;11.728;2022-07-15T02:42:33;6.30;;;2.22;;
1294;SDS011;640;48.310;11.728;2022-07-15T02:45:03;4.85;;;1.67;;
1294;SDS011;640;48.310;11.728;2022-07-15T02:47:33;6.55;;;2.40;;
1294;SDS011;640;48.310;11.728;2022-07-15T02:50:03;4.60;;;2.10;;
1294;SDS011;640;48.310;11.728;2022-07-15T02:52:32;4.30;;;2.03;;
1294;SDS011;640;48.310;11.728;2022-07-15T02:55:00;5.15;;;2.25;;
1294;SDS011;640;48.310;11.728;2022-07-15T02:57:29;6.45;;;1.95;;
1294;SDS011;640;48.310;11.728;2022-07-15T02:59:57;4.43;;;2.30;;
1294;SDS011;640;48.310;11.728;2022-07-15T03:02:26;5.78;;;2.40;;
1294;SDS011;640;48.310;11.728;2022-07-15T03:04:56;6.40;;;2.25;;
1294;SDS011;640;48.310;11.728;2022-07-15T03:07:24;6.93;;;2.55;;
1294;SDS011;640;48.310;11.728;2022-07-15T03:09:53;9.48;;;2.47;;
1294;SDS011;640;48.310;11.728;2022-07-15T03:12:21;5.15;;;1.98;;
1294;SDS011;640;48.310;11.728;2022-07-15T03:14:49;6.70;;;2.47;;
1294;SDS011;640;48.310;11.728;2022-07-15T03:17:18;4.07;;;2.20;;
1294;SDS011;640;48.310;11.728;2022-07-15T03:19:46;9.38;;;2.38;;
1294;SDS011;640;48.310;11.728;2022-07-15T03:22:16;4.28;;;2.20;;
1294;SDS011;640;48.310;11.728;2022-07-15T03:24:45;9.63;;;2.22;;
1294;SDS011;640;48.310;11.728;2022-07-15T03:27:13;7.85;;;2.65;;
1294;SDS011;640;48.310;11.728;2022-07-15T03:29:42;4.70;;;2.38;;
1294;SDS011;640;48.310;11.728;2022-07-15T03:32:11;4.28;;;2.28;;
1294;SDS011;640;48.310;11.728;2022-07-15T03:34:42;3.80;;;2.28;;
1294;SDS011;640;48.310;11.728;2022-07-15T03:37:11;6.50;;;2.45;;
1294;SDS011;640;48.310;11.728;2022-07-15T03:39:41;7.25;;;2.33;;
1294;SDS011;640;48.310;11.728;2022-07-15T03:42:09;5.55;;;2.13;;
1294;SDS011;640;48.310;11.728;2022-07-15T03:44:38;4.78;;;2.30;;
1294;SDS011;640;48.310;11.728;2022-07-15T03:47:07;5.63;;;2.22;;
1294;SDS011;640;48.310;11.728;2022-07-15T03:49:35;5.25;;;2.38;;
1294;SDS011;640;48.310;11.728;2022-07-15T03:52:04;5.18;;;2.38;;
1294;SDS011;640;48.310;11.728;2022-07-15T03:54:32;6.35;;;2.47;;
1294;SDS011;640;48.310;11.728;2022-07-15T03:57:02;8.10;;;2.28;;
1294;SDS011;640;48.310;11.728;2022-07-15T03:59:31;6.47;;;2.50;;
1294;SDS011;640;48.310;11.728;2022-07-15T04:01:59;6.20;;;2.70;;
1294;SDS011;640;48.310;11.728;2022-07-15T04:04:28;6.88;;;2.50;;
1294;SDS011;640;48.310;11.728;2022-07-15T04:06:57;9.57;;;2.50;;
1294;SDS011;640;48.310;11.728;2022-07-15T04:09:25;5.85;;;2.35;;
1294;SDS011;640;48.310;11.728;2022-07-15T04:11:54;11.10;;;2.33;;
1294;SDS011;640;48.310;11.728;2022-07-15T04:14:23;6.68;;;2.20;;
1294;SDS011;640;48.310;11.728;2022-07-15T04:16:52;4.28;;;2.38;;
1294;SDS011;640;48.310;11.728;2022-07-15T04:19:20;7.72;;;2.50;;
1294;SDS011;640;48.310;11.728;2022-07-15T04:21:49;7.10;;;2.50;;
1294;SDS011;640;48.310;11.728;2022-07-15T04:24:18;9.13;;;2.55;;
1294;SDS011;640;48.310;11.728;2022-07-15T04:26:49;5.85;;;2.30;;
1294;SDS011;640;48.310;11.728;2022-07-15T04:29:18;5.22;;;2.47;;
1294;SDS011;640;48.310;11.728;2022-07-15T04:31:48;5.78;;;2.78;;
1294;SDS011;640;48.310;11.728;2022-07-15T04:34:16;5.97;;;2.40;;
1294;SDS011;640;48.310;11.728;2022-07-15T04:36:45;7.03;;;3.15;;
1294;SDS011;640;48.310;11.728;2022-07-15T04:39:13;5.80;;;2.55;;
1294;SDS011;640;48.310;11.728;2022-07-15T04:41:41;5.28;;;2.55;;
1294;SDS011;640;48.310;11.728;2022-07-15T04:44:10;7.32;;;2.58;;
1294;SDS011;640;48.310;11.728;2022-07-15T04:46:38;6.32;;;2.28;;
1294;SDS011;640;48.310;11.728;2022-07-15T04:49:08;6.63;;;2.50;;
1294;SDS011;640;48.310;11.728;2022-07-15T04:51:54;3.55;;;2.20;;
1294;SDS011;640;48.310;11.728;2022-07-15T04:54:22;5.25;;;2.47;;
1294;SDS011;640;48.310;11.728;2022-07-15T04:56:51;3.92;;;2.33;;
1294;SDS011;640;48.310;11.728;2022-07-15T04:59:19;6.97;;;2.20;;
1294;SDS011;640;48.310;11.728;2022-07-15T05:01:48;4.97;;;2.60;;
1294;SDS011;640;48.310;11.728;2022-07-15T05:04:17;4.53;;;2.20;;
1294;SDS011;640;48.310;11.728;2022-07-15T05:06:46;4.35;;;2.28;;
1294;SDS011;640;48.310;11.728;2022-07-15T05:09:14;5.68;;;2.28;;
1294;SDS011;640;48.310;11.728;2022-07-15T05:11:43;6.18;;;2.13;;
1294;SDS011;640;48.310;11.728;2022-07-15T05:14:11;6.38;;;2.40;;
1294;SDS011;640;48.310;11.728;2022-07-15T05:16:39;4.60;;;2.10;;
1294;SDS011;640;48.310;11.728;2022-07-15T05:19:08;6.88;;;2.20;;
1294;SDS011;640;48.310;11.728;2022-07-15T05:21:38;4.53;;;1.90;;
1294;SDS011;640;48.310;11.728;2022-07-15T05:24:06;4.68;;;2.33;;
1294;SDS011;640;48.310;11.728;2022-07-15T05:26:54;4.25;;;2.30;;
1294;SDS011;640;48.310;11.728;2022-07-15T05:29:23;5.30;;;2.13;;
1294;SDS011;640;48.310;11.728;2022-07-15T05:31:52;5.72;;;2.20;;
1294;SDS011;640;48.310;11.728;2022-07-15T05:34:21;6.70;;;2.58;;
1294;SDS011;640;48.310;11.728;2022-07-15T05:36:50;7.68;;;2.28;;
1294;SDS011;640;48.310;11.728;2022-07-15T05:39:19;6.43;;;2.05;;
1294;SDS011;640;48.310;11.728;2022-07-15T05:41:47;8.02;;;2.40;;
1294;SDS011;640;48.310;11.728;2022-07-15T05:44:16;5.60;;;2.25;;
1294;SDS011;640;48.310;11.728;2022-07-15T05:46:44;5.15;;;2.13;;
1294;SDS011;640;48.310;11.728;2022-07-15T05:49:13;6.65;;;2.40;;
1294;SDS011;640;48.310;11.728;2022-07-15T05:51:41;5.75;;;2.70;;
1294;SDS011;640;48.310;11.728;2022-07-15T05:54:11;4.30;;;2.20;;
1294;SDS011;640;48.310;11.728;2022-07-15T05:56:42;5.53;;;2.22;;
1294;SDS011;640;48.310;11.728;2022-07-15T05:59:11;2.78;;;1.88;;
1294;SDS011;640;48.310;11.728;2022-07-15T06:01:39;6.60;;;2.40;;
1294;SDS011;640;48.310;11.728;2022-07-15T06:04:07;4.60;;;2.15;;
1294;SDS011;640;48.310;11.728;2022-07-15T06:06:36;3.78;;;1.73;;
1294;SDS011;640;48.310;11.728;2022-07-15T06:09:04;5.50;;;1.92;;
1294;SDS011;640;48.310;11.728;2022-07-15T06:11:34;3.63;;;1.85;;
1294;SDS011;640;48.310;11.728;2022-07-15T06:14:02;7.38;;;2.13;;
1294;SDS011;640;48.310;11.728;2022-07-15T06:16:32;5.70;;;2.07;;
1294;SDS011;640;48.310;11.728;2022-07-15T06:19:00;7.03;;;2.00;;
1294;SDS011;640;48.310;11.728;2022-07-15T06:21:29;7.78;;;2.13;;
1294;SDS011;640;48.310;11.728;2022-07-15T06:23:57;4.82;;;1.67;;
1294;SDS011;640;48.310;11.728;2022-07-15T06:26:26;6.40;;;1.90;;
1294;SDS011;640;48.310;11.728;2022-07-15T06:28:56;3.90;;;1.95;;
1294;SDS011;640;48.310;11.728;2022-07-15T06:31:24;4.53;;;1.63;;
1294;SDS011;640;48.310;11.728;2022-07-15T06:33:53;5.47;;;1.73;;
1294;SDS011;640;48.310;11.728;2022-07-15T06:36:21;5.00;;;1.88;;
1294;SDS011;640;48.310;11.728;2022-07-15T06:38:50;6.78;;;1.83;;
1294;SDS011;640;48.310;11.728;2022-07-15T06:41:18;6.57;;;1.50;;
1294;SDS011;640;48.310;11.728;2022-07-15T06:43:46;6.07;;;2.10;;
1294;SDS011;640;48.310;11.728;2022-07-15T06:46:16;5.35;;;1.85;;
1294;SDS011;640;48.310;11.728;2022-07-15T06:48:45;4.80;;;1.90;;
1294;SDS011;640;48.310;11.728;2022-07-15T06:51:13;4.88;;;1.67;;
1294;SDS011;640;48.310;11.728;2022-07-15T06:53:42;5.22;;;1.70;;
1294;SDS011;640;48.310;11.728;2022-07-15T06:56:10;6.35;;;1.60;;
1294;SDS011;640;48.310;11.728;2022-07-15T06:58:39;5.68;;;1.83;;
1294;SDS011;640;48.310;11.728;2022-07-15T07:01:08;4.70;;;1.60;;
1294;SDS011;640;48.310;11.728;2022-07-15T07:03:38;4.35;;;1.45;;
1294;SDS011;640;48.310;11.728;2022-07-15T07:06:24;6.97;;;1.75;;
1294;SDS011;640;48.310;11.728;2022-07-15T07:08:53;3.88;;;1.30;;
1294;SDS011;640;48.310;11.728;2022-07-15T07:11:22;5.72;;;1.42;;
1294;SDS011;640;48.310;11.728;2022-07-15T07:13:50;7.28;;;1.50;;
1294;SDS011;640;48.310;11.728;2022-07-15T07:16:18;3.78;;;1.50;;
1294;SDS011;640;48.310;11.728;2022-07-15T07:18:48;4.63;;;1.60;;
1294;SDS011;640;48.310;11.728;2022-07-15T07:21:18;7.40;;;1.70;;
1294;SDS011;640;48.310;11.728;2022-07-15T07:23:56;6.90;;;1.73;;
1294;SDS011;640;48.310;11.728;2022-07-15T07:26:25;4.53;;;1.70;;
1294;SDS011;640;48.310;11.728;2022-07-15T07:28:53;4.78;;;1.60;;
1294;SDS011;640;48.310;11.728;2022-07-15T07:31:22;6.57;;;1.50;;
1294;SDS011;640;48.310;11.728;2022-07-15T07:33:55;5.97;;;1.73;;
1294;SDS011;640;48.310;11.728;2022-07-15T07:36:24;7.18;;;1.52;;
1294;SDS011;640;48.310;11.728;2022-07-15T07:38:53;3.40;;;1.45;;
1294;SDS011;640;48.310;11.728;2022-07-15T07:41:22;4.55;;;1.30;;
1294;SDS011;640;48.310;11.728;2022-07-15T07:43:51;6.55;;;1.50;;
1294;SDS011;640;48.310;11.728;2022-07-15T07:46:19;4.50;;;1.70;;
1294;SDS011;640;48.310;11.728;2022-07-15T07:48:48;5.13;;;1.40;;
1294;SDS011;640;48.310;11.728;2022-07-15T07:51:28;4.47;;;1.42;;
1294;SDS011;640;48.310;11.728;2022-07-15T07:53:57;7.85;;;1.63;;
1294;SDS011;640;48.310;11.728;2022-07-15T07:56:25;4.18;;;1.20;;
1294;SDS011;640;48.310;11.728;2022-07-15T07:58:54;6.05;;;1.40;;
1294;SDS011;640;48.310;11.728;2022-07-15T08:01:22;5.30;;;1.95;;
1294;SDS011;640;48.310;11.728;2022-07-15T08:03:51;8.02;;;1.75;;
1294;SDS011;640;48.310;11.728;2022-07-15T08:06:19;4.38;;;1.55;;
1294;SDS011;640;48.310;11.728;2022-07-15T08:08:50;4.50;;;1.30;;
1294;SDS011;640;48.310;11.728;2022-07-15T08:11:19;3.83;;;1.20;;
1294;SDS011;640;48.310;11.728;2022-07-15T08:13:47;5.03;;;1.27;;
1294;SDS011;640;48.310;11.728;2022-07-15T08:16:16;4.70;;;1.20;;
1294;SDS011;640;48.310;11.728;2022-07-15T08:18:44;4.93;;;1.50;;
1294;SDS011;640;48.310;11.728;2022-07-15T08:21:13;3.88;;;1.50;;
1294;SDS011;640;48.310;11.728;2022-07-15T08:23:42;6.32;;;1.30;;
1294;SDS011;640;48.310;11.728;2022-07-15T08:26:12;5.70;;;1.30;;
1294;SDS011;640;48.310;11.728;2022-07-15T08:28:46;3.05;;;1.35;;
1294;SDS011;640;48.310;11.728;2022-07-15T08:31:32;6.50;;;1.55;;
1294;SDS011;640;48.310;11.728;2022-07-15T08:34:01;4.75;;;1.45;;
1294;SDS011;640;48.310;11.728;2022-07-15T08:36:29;5.78;;;1.70;;
1294;SDS011;640;48.310;11.728;2022-07-15T08:38:58;7.47;;;1.67;;
1294;SDS011;640;48.310;11.728;2022-07-15T08:41:28;4.32;;;1.50;;
1294;SDS011;640;48.310;11.728;2022-07-15T08:43:56;9.55;;;1.73;;
1294;SDS011;640;48.310;11.728;2022-07-15T08:46:25;5.55;;;1.60;;
1294;SDS011;640;48.310;11.728;2022-07-15T08:48:54;3.72;;;1.40;;
1294;SDS011;640;48.310;11.728;2022-07-15T08:51:27;5.95;;;1.70;;
1294;SDS011;640;48.310;11.728;2022-07-15T08:53:56;7.35;;;1.45;;
1294;SDS011;640;48.310;11.728;2022-07-15T08:56:24;6.35;;;2.03;;
1294;SDS011;640;48.310;11.728;2022-07-15T08:58:54;5.30;;;1.80;;
1294;SDS011;640;48.310;11.728;2022-07-15T09:01:27;3.65;;;1.40;;
1294;SDS011;640;48.310;11.728;2022-07-15T09:03:55;4.82;;;1.58;;
1294;SDS011;640;48.310;11.728;2022-07-15T09:06:34;5.35;;;1.30;;
1294;SDS011;640;48.310;11.728;2022-07-15T09:09:22;4.78;;;1.30;;
1294;SDS011;640;48.310;11.728;2022-07-15T09:11:55;4.57;;;1.75;;
1294;SDS011;640;48.310;11.728;2022-07-15T09:14:39;5.80;;;1.33;;
1294;SDS011;640;48.310;11.728;2022-07-15T09:17:20;7.15;;;1.60;;
1294;SDS011;640;48.310;11.728;2022-07-15T09:20:06;2.95;;;1.48;;
1294;SDS011;640;48.310;11.728;2022-07-15T09:22:49;5.35;;;1.50;;
1294;SDS011;640;48.310;11.728;2022-07-15T09:25:19;4.50;;;1.33;;
1294;SDS011;640;48.310;11.728;2022-07-15T09:27:49;4.68;;;1.70;;
1294;SDS011;640;48.310;11.728;2022-07-15T09:30:21;4.88;;;1.60;;
1294;SDS011;640;48.310;11.728;2022-07-15T09:33:08;4.25;;;1.50;;
1294;SDS011;640;48.310;11.728;2022-07-15T09:36:06;5.78;;;1.77;;
1294;SDS011;640;48.310;11.728;2022-07-15T09:38:40;8.05;;;2.08;;
1294;SDS011;640;48.310;11.728;2022-07-15T09:41:20;7.50;;;2.05;;
1294;SDS011;640;48.310;11.728;2022-07-15T09:46:24;5.47;;;1.48;;
1294;SDS011;640;48.310;11.728;2022-07-15T09:48:54;6.35;;;1.83;;
1294;SDS011;640;48.310;11.728;2022-07-15T09:51:23;3.13;;;1.50;;
1294;SDS011;640;48.310;11.728;2022-07-15T09:53:51;5.88;;;1.60;;
1294;SDS011;640;48.310;11.728;2022-07-15T09:56:27;4.68;;;1.95;;
1294;SDS011;640;48.310;11.728;2022-07-15T09:58:55;7.35;;;1.70;;
1294;SDS011;640;48.310;11.728;2022-07-15T10:01:25;5.30;;;1.70;;
1294;SDS011;640;48.310;11.728;2022-07-15T10:03:55;2.75;;;1.40;;
1294;SDS011;640;48.310;11.728;2022-07-15T10:06:29;4.20;;;1.70;;
1294;SDS011;640;48.310;11.728;2022-07-15T10:09:03;7.35;;;1.58;;
1294;SDS011;640;48.310;11.728;2022-07-15T10:14:18;4.47;;;1.73;;
1294;SDS011;640;48.310;11.728;2022-07-15T10:17:23;5.00;;;1.70;;
1294;SDS011;640;48.310;11.728;2022-07-15T10:20:02;7.72;;;1.95;;
1294;SDS011;640;48.310;11.728;2022-07-15T10:22:42;3.50;;;1.60;;
1294;SDS011;640;48.310;11.728;2022-07-15T10:25:23;7.82;;;1.77;;
1294;SDS011;640;48.310;11.728;2022-07-15T10:28:00;6.38;;;1.73;;
1294;SDS011;640;48.310;11.728;2022-07-15T10:30:32;4.53;;;1.80;;
1294;SDS011;640;48.310;11.728;2022-07-15T10:33:14;3.45;;;1.77;;
1294;SDS011;640;48.310;11.728;2022-07-15T10:35:45;3.58;;;1.55;;
1294;SDS011;640;48.310;11.728;2022-07-15T10:38:28;6.13;;;1.73;;
1294;SDS011;640;48.310;11.728;2022-07-15T10:40:58;4.50;;;1.77;;
1294;SDS011;640;48.310;11.728;2022-07-15T10:43:41;3.83;;;1.60;;
1294;SDS011;640;48.310;11.728;2022-07-15T10:54:48;5.65;;;1.85;;
1294;SDS011;640;48.310;11.728;2022-07-15T10:59:48;3.08;;;1.60;;
1294;SDS011;640;48.310;11.728;2022-07-15T11:02:22;4.45;;;1.60;;
1294;SDS011;640;48.310;11.728;2022-07-15T11:05:16;3.35;;;1.80;;
1294;SDS011;640;48.310;11.728;2022-07-15T11:07:45;5.15;;;1.88;;
1294;SDS011;640;48.310;11.728;2022-07-15T11:10:14;3.65;;;1.67;;
1294;SDS011;640;48.310;11.728;2022-07-15T11:12:56;5.78;;;2.10;;
1294;SDS011;640;48.310;11.728;2022-07-15T11:15:27;6.00;;;1.85;;
1294;SDS011;640;48.310;11.728;2022-07-15T11:17:56;5.55;;;1.70;;
1294;SDS011;640;48.310;11.728;2022-07-15T11:20:35;4.35;;;1.67;;
1294;SDS011;640;48.310;11.728;2022-07-15T11:23:05;5.40;;;1.83;;
1294;SDS011;640;48.310;11.728;2022-07-15T11:25:36;4.75;;;1.80;;
1294;SDS011;640;48.310;11.728;2022-07-15T11:28:07;3.75;;;1.70;;
1294;SDS011;640;48.310;11.728;2022-07-15T11:30:38;3.55;;;1.63;;
1294;SDS011;640;48.310;11.728;2022-07-15T11:33:08;4.40;;;1.80;;
1294;SDS011;640;48.310;11.728;2022-07-15T11:35:43;4.28;;;2.20;;
1294;SDS011;640;48.310;11.728;2022-07-15T11:38:18;4.28;;;1.65;;
1294;SDS011;640;48.310;11.728;2022-07-15T11:40:50;5.68;;;2.10;;
1294;SDS011;640;48.310;11.728;2022-07-15T11:43:38;4.20;;;1.90;;
1294;SDS011;640;48.310;11.728;2022-07-15T11:46:24;7.22;;;2.10;;
1294;SDS011;640;48.310;11.728;2022-07-15T11:48:53;5.15;;;1.90;;
1294;SDS011;640;48.310;11.728;2022-07-15T11:51:26;6.85;;;2.40;;
1294;SDS011;640;48.310;11.728;2022-07-15T11:53:56;4.13;;;1.70;;
1294;SDS011;640;48.310;11.728;2022-07-15T11:56:25;4.27;;;1.97;;
1294;SDS011;640;48.310;11.728;2022-07-15T11:58:55;2.95;;;1.92;;
1294;SDS011;640;48.310;11.728;2022-07-15T12:03:55;4.70;;;1.67;;
1294;SDS011;640;48.310;11.728;2022-07-15T12:11:24;4.75;;;1.73;;
1294;SDS011;640;48.310;11.728;2022-07-15T12:13:54;7.03;;;2.10;;
1294;SDS011;640;48.310;11.728;2022-07-15T12:16:25;3.47;;;2.10;;
1294;SDS011;640;48.310;11.728;2022-07-15T12:18:56;4.00;;;2.00;;
1294;SDS011;640;48.310;11.728;2022-07-15T12:21:27;5.38;;;2.15;;
1294;SDS011;640;48.310;11.728;2022-07-15T12:24:03;4.78;;;1.67;;
1294;SDS011;640;48.310;11.728;2022-07-15T12:26:35;5.97;;;2.13;;
1294;SDS011;640;48.310;11.728;2022-07-15T12:29:06;4.22;;;1.90;;
1294;SDS011;640;48.310;11.728;2022-07-15T12:31:36;3.97;;;2.05;;
1294;SDS011;640;48.310;11.728;2022-07-15T12:34:06;2.67;;;1.40;;
1294;SDS011;640;48.310;11.728;2022-07-15T12:36:36;4.28;;;1.80;;
1294;SDS011;640;48.310;11.728;2022-07-15T12:39:07;3.70;;;1.70;;
1294;SDS011;640;48.310;11.728;2022-07-15T12:44:25;5.63;;;2.28;;
1294;SDS011;640;48.310;11.728;2022-07-15T12:46:55;5.55;;;2.03;;
1294;SDS011;640;48.310;11.728;2022-07-15T12:52:19;5.25;;;1.90;;
1294;SDS011;640;48.310;11.728;2022-07-15T12:54:50;7.53;;;2.42;;
1294;SDS011;640;48.310;11.728;2022-07-15T12:57:21;3.83;;;1.98;;
1294;SDS011;640;48.310;11.728;2022-07-15T12:59:52;3.78;;;2.17;;
1294;SDS011;640;48.310;11.728;2022-07-15T13:02:21;3.38;;;1.70;;
1294;SDS011;640;48.310;11.728;2022-07-15T13:04:50;4.13;;;1.80;;
1294;SDS011;640;48.310;11.728;2022-07-15T13:07:20;4.60;;;2.05;;
1294;SDS011;640;48.310;11.728;2022-07-15T13:09:49;7.20;;;2.10;;
1294;SDS011;640;48.310;11.728;2022-07-15T13:12:18;3.50;;;1.90;;
1294;SDS011;640;48.310;11.728;2022-07-15T13:14:47;3.55;;;1.90;;
1294;SDS011;640;48.310;11.728;2022-07-15T13:17:15;5.97;;;2.13;;
1294;SDS011;640;48.310;11.728;2022-07-15T13:19:44;4.40;;;2.10;;
1294;SDS011;640;48.310;11.728;2022-07-15T13:22:12;4.53;;;2.10;;
1294;SDS011;640;48.310;11.728;2022-07-15T13:24:42;4.10;;;2.15;;
1294;SDS011;640;48.310;11.728;2022-07-15T13:27:10;3.55;;;2.10;;
1294;SDS011;640;48.310;11.728;2022-07-15T13:29:39;4.70;;;2.13;;
1294;SDS011;640;48.310;11.728;2022-07-15T13:32:07;8.60;;;2.08;;
1294;SDS011;640;48.310;11.728;2022-07-15T13:34:36;5.20;;;2.10;;
1294;SDS011;640;48.310;11.728;2022-07-15T13:37:04;4.72;;;1.90;;
1294;SDS011;640;48.310;11.728;2022-07-15T13:39:33;3.45;;;2.15;;
1294;SDS011;640;48.310;11.728;2022-07-15T13:42:02;3.75;;;2.10;;
1294;SDS011;640;48.310;11.728;2022-07-15T13:44:31;5.05;;;2.63;;
1294;SDS011;640;48.310;11.728;2022-07-15T13:46:59;4.68;;;2.10;;
1294;SDS011;640;48.310;11.728;2022-07-15T13:49:28;3.22;;;2.10;;
1294;SDS011;640;48.310;11.728;2022-07-15T13:52:14;3.65;;;2.22;;
1294;SDS011;640;48.310;11.728;2022-07-15T13:54:42;5.70;;;2.10;;
1294;SDS011;640;48.310;11.728;2022-07-15T13:57:13;4.32;;;2.42;;
1294;SDS011;640;48.310;11.728;2022-07-15T13:59:41;3.17;;;2.20;;
1294;SDS011;640;48.310;11.728;2022-07-15T14:02:09;3.22;;;2.00;;
1294;SDS011;640;48.310;11.728;2022-07-15T14:04:38;7.28;;;2.35;;
1294;SDS011;640;48.310;11.728;2022-07-15T14:07:06;4.65;;;2.38;;
1294;SDS011;640;48.310;11.728;2022-07-15T14:09:35;4.72;;;2.45;;
1294;SDS011;640;48.310;11.728;2022-07-15T14:12:12;5.60;;;2.30;;
1294;SDS011;640;48.310;11.728;2022-07-15T14:17:10;4.03;;;2.25;;
1294;SDS011;640;48.310;11.728;2022-07-15T14:19:38;4.40;;;2.22;;
1294;SDS011;640;48.310;11.728;2022-07-15T14:22:07;4.72;;;2.38;;
1294;SDS011;640;48.310;11.728;2022-07-15T14:24:36;5.80;;;2.20;;
1294;SDS011;640;48.310;11.728;2022-07-15T14:27:04;3.97;;;2.25;;
1294;SDS011;640;48.310;11.728;2022-07-15T14:29:34;5.13;;;2.30;;
1294;SDS011;640;48.310;11.728;2022-07-15T14:32:03;5.38;;;2.17;;
1294;SDS011;640;48.310;11.728;2022-07-15T14:34:32;4.63;;;2.05;;
1294;SDS011;640;48.310;11.728;2022-07-15T14:37:02;5.70;;;2.10;;
1294;SDS011;640;48.310;11.728;2022-07-15T14:39:51;4.75;;;2.50;;
1294;SDS011;640;48.310;11.728;2022-07-15T14:42:19;4.85;;;2.10;;
1294;SDS011;640;48.310;11.728;2022-07-15T14:44:49;5.68;;;2.10;;
1294;SDS011;640;48.310;11.728;2022-07-15T14:49:46;2.88;;;2.08;;
1294;SDS011;640;48.310;11.728;2022-07-15T14:52:15;4.03;;;2.08;;
1294;SDS011;640;48.310;11.728;2022-07-15T14:54:44;5.97;;;2.05;;
1294;SDS011;640;48.310;11.728;2022-07-15T14:57:12;3.58;;;2.05;;
1294;SDS011;640;48.310;11.728;2022-07-15T14:59:40;5.85;;;2.42;;
1294;SDS011;640;48.310;11.728;2022-07-15T15:02:10;5.53;;;2.25;;
1294;SDS011;640;48.310;11.728;2022-07-15T15:07:07;7.53;;;2.42;;
1294;SDS011;640;48.310;11.728;2022-07-15T15:09:35;4.82;;;2.67;;
1294;SDS011;640;48.310;11.728;2022-07-15T15:12:04;5.63;;;2.10;;
1294;SDS011;640;48.310;11.728;2022-07-15T15:14:35;4.82;;;2.20;;
1294;SDS011;640;48.310;11.728;2022-07-15T15:17:04;2.90;;;2.17;;
1294;SDS011;640;48.310;11.728;2022-07-15T15:19:37;3.40;;;2.13;;
1294;SDS011;640;48.310;11.728;2022-07-15T15:22:06;3.28;;;2.05;;
1294;SDS011;640;48.310;11.728;2022-07-15T15:24:34;4.95;;;2.17;;
1294;SDS011;640;48.310;11.728;2022-07-15T15:27:03;3.55;;;2.03;;
1294;SDS011;640;48.310;11.728;2022-07-15T15:29:33;4.72;;;2.28;;
1294;SDS011;640;48.310;11.728;2022-07-15T15:32:02;3.80;;;2.20;;
1294;SDS011;640;48.310;11.728;2022-07-15T15:34:31;4.97;;;2.58;;
1294;SDS011;640;48.310;11.728;2022-07-15T15:37:01;4.43;;;2.83;;
1294;SDS011;640;48.310;11.728;2022-07-15T15:39:29;4.93;;;2.50;;
1294;SDS011;640;48.310;11.728;2022-07-15T15:41:58;5.57;;;2.40;;
1294;SDS011;640;48.310;11.728;2022-07-15T15:44:26;6.47;;;3.00;;
1294;SDS011;640;48.310;11.728;2022-07-15T15:46:55;7.18;;;2.58;;
1294;SDS011;640;48.310;11.728;2022-07-15T15:49:23;5.07;;;2.67;;
1294;SDS011;640;48.310;11.728;2022-07-15T15:51:52;3.88;;;2.50;;
1294;SDS011;640;48.310;11.728;2022-07-15T15:54:21;4.43;;;2.28;;
1294;SDS011;640;48.310;11.728;2022-07-15T15:56:50;4.43;;;2.20;;
1294;SDS011;640;48.310;11.728;2022-07-15T15:59:18;5.28;;;2.35;;
1294;SDS011;640;48.310;11.728;2022-07-15T16:01:47;4.35;;;2.33;;
1294;SDS011;640;48.310;11.728;2022-07-15T16:04:16;5.03;;;2.20;;
1294;SDS011;640;48.310;11.728;2022-07-15T16:06:44;4.32;;;1.98;;
1294;SDS011;640;48.310;11.728;2022-07-15T16:09:12;5.43;;;2.30;;
1294;SDS011;640;48.310;11.728;2022-07-15T16:11:42;5.43;;;2.10;;
1294;SDS011;640;48.310;11.728;2022-07-15T16:14:11;3.33;;;1.92;;
1294;SDS011;640;48.310;11.728;2022-07-15T16:16:39;4.65;;;2.25;;